INFORMACIÓN METAR y TAF
METAR FOR EGLC
ADDS - METARS form results

(0211 UTC 15 August 2020)
Data provider http://aviationweather.gov/metar/data/
 
METAR text: EGLC 150150Z AUTO VRB03KT 2600 -RADZ OVC003 18/18 Q1014 REDZ
Conditions at: EGLC (LONDON CITY AIRP, GB) observed 0150 UTC 15 August 2020
Temperature: 18.0°C (64°F)
Dewpoint: 18.0°C (64°F) [RH = 100%]
Pressure (altimeter): 29.94 inches Hg (1014.0 mb)
Winds: variable direction winds at 3 MPH (3 knots; 1.5 m/s)
Visibility: 1.62 miles (2.61 km)
Ceiling: 300 feet AGL
Clouds: overcast cloud deck at 300 feet AGL
Weather: -RA -DZ  (light rain, light drizzle)

METAR text: EGLC 150120Z AUTO 36004KT 310V030 2000 DZ OVC003 18/18 Q1014
Conditions at: EGLC (LONDON CITY AIRP, GB) observed 0120 UTC 15 August 2020
Temperature: 18.0°C (64°F)
Dewpoint: 18.0°C (64°F) [RH = 100%]
Pressure (altimeter): 29.94 inches Hg (1014.0 mb)
Winds: from the N (360 degrees) at 5 MPH (4 knots; 2.1 m/s)
Visibility: 1.24 miles (2.00 km)
Ceiling: 300 feet AGL
Clouds: overcast cloud deck at 300 feet AGL
Weather: DZ  (moderate drizzle)

Forecast for: EGLC (LONDON CITY AIRP, GB)
Text: TAF EGLC 150155Z 1503/1512 36003KT 9999 BKN007
Forecast period: 0300 to 1200 UTC 15 August 2020
Forecast type: FROM: standard forecast or significant change
Winds: from the N (360 degrees) at 3 MPH (3 knots; 1.5 m/s)
Visibility: 6 or more miles (10+ km)
Ceiling: 700 feet AGL
Clouds: broken clouds at 700 feet AGL
Weather: no significant weather forecast for this period
Text: TEMPO 1503/1507 7000 BKN004
Forecast period: 0300 to 0700 UTC 15 August 2020
Forecast type: TEMPORARY: The following changes expected for less than half the time period
Visibility: 4 miles (7 km)
Ceiling: 400 feet AGL
Clouds: broken clouds at 400 feet AGL
Weather: no significant weather forecast for this period
Text: PROB30
Forecast period: 0300 to 1200 UTC 15 August 2020
Forecast type: TEMPORARY: The following changes expected for less than half the time period
Visibility: 1.86 miles (2.99 km)
Ceiling: 1000 feet AGL
Clouds: broken clouds at 1000 feet AGL
Weather: +TSRA  (heavy rain associated with thunderstorm(s))

MAPA DE AEROPUERTO

INFORMACIÓN DE PISTA
Pista 10 Longitud 4948 ft Ancho 98 ft
Elevación 16 ft Umbral desplazado 358 ft Rumbo de pista 93
Pista 28 Longitud 4948 ft Ancho 98 ft
Elevación 19 ft Umbral desplazado 211 ft Rumbo de pista 273

FRECUANCIAS DEL AEROPUERTO
Tipo APP Nombre APP Frecuencia 132.7 MHZ
Tipo ATIS Nombre ATIS Frecuencia 136.35 MHZ
Tipo GND Nombre GND Frecuencia 121.825 MHZ
Tipo TWR Nombre TWR Frecuencia 118.075 MHZ

RADIO AYUDAS DEL AEROPUERTO
Tipo NDB Nombre City Frecuencia 322 KHZ